< Typhoon 196205 1962 Season Typhoon 196207 >
Typhoon 196206 (KATE)
General InformationTrack Information on Google Maps || Disaster Info.ResourceGoogle EarthGE AnimationAtom FeedGeoJSON
Detalied Best Track (Time Zone = UTC)
Year Month Day Hour Lat. Long. Pressure (hPa) Wind (kt) Class Image Chart
1962 7 17 12 17.0 126.6 1007 0 2 -- Chart
1962 7 17 18 17.0 126.1 1005 0 2 -- Chart
1962 7 18 00 17.2 125.3 1004 0 2 -- Chart
1962 7 18 06 17.5 124.7 1004 0 2 -- Chart
1962 7 18 12 17.7 124.5 1004 0 2 -- Chart
1962 7 18 18 18.3 123.7 1002 0 2 -- Chart
1962 7 19 00 18.7 123.0 1000 0 2 -- Chart
1962 7 19 06 19.1 122.6 1000 0 2 -- Chart
1962 7 19 12 19.6 121.8 1000 0 2 -- Chart
1962 7 19 18 20.0 121.0 996 0 2 -- Chart
1962 7 20 00 19.7 120.0 990 0 9 -- Chart
1962 7 20 06 19.6 119.5 985 0 9 -- Chart
1962 7 20 12 19.6 119.3 980 0 9 -- Chart
1962 7 20 18 19.6 119.0 980 0 9 -- Chart
1962 7 21 00 19.4 118.9 980 0 9 -- Chart
1962 7 21 06 19.7 119.3 980 0 9 -- Chart
1962 7 21 12 20.0 119.5 980 0 9 -- Chart
1962 7 21 18 20.5 120.0 980 0 9 -- Chart
1962 7 22 00 20.8 120.3 970 0 9 -- Chart
1962 7 22 06 21.6 120.8 970 0 9 -- Chart
1962 7 22 12 22.7 121.1 972 0 9 -- Chart
1962 7 22 18 23.9 121.4 975 0 9 -- Chart
1962 7 23 00 25.6 121.2 980 0 9 -- Chart
1962 7 23 06 26.4 120.9 980 0 9 -- Chart
1962 7 23 12 27.3 120.4 990 0 9 -- Chart
1962 7 23 18 28.0 119.9 992 0 9 -- Chart
1962 7 24 00 28.9 119.4 994 0 9 -- Chart
1962 7 24 06 30.0 118.0 994 0 2 -- Chart
1962 7 24 12 31.2 117.0 994 0 2 -- Chart
1962 7 24 18 32.0 116.5 994 0 2 -- Chart
1962 7 25 00 33.0 116.3 995 0 2 -- Chart
1962 7 25 06 33.8 116.3 996 0 2 -- Chart
1962 7 25 12 34.6 116.5 997 0 2 -- Chart
1962 7 25 18 35.5 116.6 998 0 2 -- Chart
Japan Meteorological Agency Best Track Data | Correction Date : 1989-06-01
< Typhoon 196205 1962 Season Typhoon 196207 >

Help